sensor_id;sensor_type;location;lat;lon;timestamp;pressure;altitude;pressure_sealevel;temperature;humidity
51083;BME280;37131;42.694;23.350;2022-11-20T00:01:08;94752.13;;;13.27;94.00
51083;BME280;37131;42.694;23.350;2022-11-20T00:03:34;94796.66;;;13.69;87.11
51083;BME280;37131;42.694;23.350;2022-11-20T00:06:00;94747.25;;;13.99;85.31
51083;BME280;37131;42.694;23.350;2022-11-20T00:08:25;94774.53;;;14.08;84.12
51083;BME280;37131;42.694;23.350;2022-11-20T00:10:50;94758.84;;;14.18;82.65
51083;BME280;37131;42.694;23.350;2022-11-20T00:13:16;94768.31;;;14.25;83.35
51083;BME280;37131;42.694;23.350;2022-11-20T00:15:41;94774.31;;;14.20;85.02
51083;BME280;37131;42.694;23.350;2022-11-20T00:18:06;94770.13;;;14.19;85.52
51083;BME280;37131;42.694;23.350;2022-11-20T00:20:31;94795.81;;;14.22;84.12
51083;BME280;37131;42.694;23.350;2022-11-20T00:22:57;94797.66;;;14.21;83.11
51083;BME280;37131;42.694;23.350;2022-11-20T00:25:22;94775.59;;;14.07;85.49
51083;BME280;37131;42.694;23.350;2022-11-20T00:27:47;94752.25;;;14.11;84.55
51083;BME280;37131;42.694;23.350;2022-11-20T00:30:12;94756.25;;;14.24;83.76
51083;BME280;37131;42.694;23.350;2022-11-20T00:32:38;94783.19;;;14.09;85.54
51083;BME280;37131;42.694;23.350;2022-11-20T00:35:03;94776.63;;;14.06;85.75
51083;BME280;37131;42.694;23.350;2022-11-20T00:37:28;94775.34;;;14.14;83.71
51083;BME280;37131;42.694;23.350;2022-11-20T00:39:53;94758.34;;;14.27;82.64
51083;BME280;37131;42.694;23.350;2022-11-20T00:42:19;94756.75;;;14.26;81.66
51083;BME280;37131;42.694;23.350;2022-11-20T00:44:44;94744.69;;;14.19;83.87
51083;BME280;37131;42.694;23.350;2022-11-20T00:47:10;94759.13;;;14.27;81.71
51083;BME280;37131;42.694;23.350;2022-11-20T00:49:35;94785.63;;;14.36;82.14
51083;BME280;37131;42.694;23.350;2022-11-20T00:52:00;94748.47;;;15.01;74.03
51083;BME280;37131;42.694;23.350;2022-11-20T00:54:26;94759.97;;;15.20;72.71
51083;BME280;37131;42.694;23.350;2022-11-20T00:56:54;94765.25;;;15.15;73.21
51083;BME280;37131;42.694;23.350;2022-11-20T00:59:19;94756.31;;;15.32;70.82
51083;BME280;37131;42.694;23.350;2022-11-20T01:01:44;94752.34;;;15.39;71.41
51083;BME280;37131;42.694;23.350;2022-11-20T01:04:09;94758.88;;;15.47;71.12
51083;BME280;37131;42.694;23.350;2022-11-20T01:06:35;94737.13;;;15.36;72.42
51083;BME280;37131;42.694;23.350;2022-11-20T01:09:03;94754.97;;;15.39;69.45
51083;BME280;37131;42.694;23.350;2022-11-20T01:11:29;94752.03;;;15.61;68.26
51083;BME280;37131;42.694;23.350;2022-11-20T01:13:56;94727.53;;;15.76;67.30
51083;BME280;37131;42.694;23.350;2022-11-20T01:16:22;94755.41;;;15.83;68.70
51083;BME280;37131;42.694;23.350;2022-11-20T01:18:49;94747.25;;;15.79;67.17
51083;BME280;37131;42.694;23.350;2022-11-20T01:21:16;94738.03;;;15.92;65.70
51083;BME280;37131;42.694;23.350;2022-11-20T01:23:42;94757.72;;;15.94;66.89
51083;BME280;37131;42.694;23.350;2022-11-20T01:26:11;94717.28;;;15.75;66.36
51083;BME280;37131;42.694;23.350;2022-11-20T01:28:37;94733.31;;;15.84;67.42
51083;BME280;37131;42.694;23.350;2022-11-20T01:31:25;94722.44;;;16.06;62.80
51083;BME280;37131;42.694;23.350;2022-11-20T01:33:49;94733.94;;;16.20;65.49
51083;BME280;37131;42.694;23.350;2022-11-20T01:36:16;94705.47;;;16.27;63.36
51083;BME280;37131;42.694;23.350;2022-11-20T01:38:42;94670.78;;;16.60;60.01
51083;BME280;37131;42.694;23.350;2022-11-20T01:41:07;94729.47;;;16.60;62.20
51083;BME280;37131;42.694;23.350;2022-11-20T01:43:34;94645.56;;;16.54;61.86
51083;BME280;37131;42.694;23.350;2022-11-20T01:48:28;94704.56;;;16.82;62.24
51083;BME280;37131;42.694;23.350;2022-11-20T01:50:55;94710.38;;;16.79;61.98
51083;BME280;37131;42.694;23.350;2022-11-20T01:53:25;94719.19;;;16.98;60.28
51083;BME280;37131;42.694;23.350;2022-11-20T01:55:55;94709.63;;;17.08;60.90
51083;BME280;37131;42.694;23.350;2022-11-20T01:58:26;94715.25;;;17.25;59.58
51083;BME280;37131;42.694;23.350;2022-11-20T02:00:53;94696.66;;;17.41;58.75
51083;BME280;37131;42.694;23.350;2022-11-20T02:03:19;94717.53;;;17.61;57.68
51083;BME280;37131;42.694;23.350;2022-11-20T02:05:56;94710.56;;;17.70;58.05
51083;BME280;37131;42.694;23.350;2022-11-20T02:08:24;94714.88;;;17.08;61.23
51083;BME280;37131;42.694;23.350;2022-11-20T02:10:49;94712.50;;;17.35;59.43
51083;BME280;37131;42.694;23.350;2022-11-20T02:13:15;94707.69;;;17.43;57.24
51083;BME280;37131;42.694;23.350;2022-11-20T02:16:00;94726.75;;;17.59;58.93
51083;BME280;37131;42.694;23.350;2022-11-20T02:18:26;94707.91;;;17.22;58.15
51083;BME280;37131;42.694;23.350;2022-11-20T02:20:56;94716.53;;;17.52;58.21
51083;BME280;37131;42.694;23.350;2022-11-20T02:25:52;94721.38;;;17.69;58.13
51083;BME280;37131;42.694;23.350;2022-11-20T02:28:19;94726.09;;;17.72;55.28
51083;BME280;37131;42.694;23.350;2022-11-20T02:30:44;94712.22;;;17.85;55.57
51083;BME280;37131;42.694;23.350;2022-11-20T02:33:10;94721.59;;;17.97;55.64
51083;BME280;37131;42.694;23.350;2022-11-20T02:38:02;94723.44;;;17.96;56.88
51083;BME280;37131;42.694;23.350;2022-11-20T02:40:27;94729.16;;;17.79;58.49
51083;BME280;37131;42.694;23.350;2022-11-20T02:42:54;94735.94;;;17.85;55.01
51083;BME280;37131;42.694;23.350;2022-11-20T02:45:20;94722.97;;;17.89;57.13
51083;BME280;37131;42.694;23.350;2022-11-20T02:47:46;94725.03;;;17.97;55.54
51083;BME280;37131;42.694;23.350;2022-11-20T02:50:12;94729.16;;;17.79;57.07
51083;BME280;37131;42.694;23.350;2022-11-20T02:52:37;94750.53;;;17.78;56.49
51083;BME280;37131;42.694;23.350;2022-11-20T02:55:03;94748.56;;;17.88;56.58
51083;BME280;37131;42.694;23.350;2022-11-20T02:57:28;94747.84;;;17.83;56.33
51083;BME280;37131;42.694;23.350;2022-11-20T02:59:54;94747.19;;;17.72;56.67
51083;BME280;37131;42.694;23.350;2022-11-20T03:02:19;94750.09;;;17.95;55.19
51083;BME280;37131;42.694;23.350;2022-11-20T03:04:45;94757.16;;;17.99;56.61
51083;BME280;37131;42.694;23.350;2022-11-20T03:07:11;94781.16;;;18.22;54.80
51083;BME280;37131;42.694;23.350;2022-11-20T03:09:36;94761.44;;;18.38;53.74
51083;BME280;37131;42.694;23.350;2022-11-20T03:12:02;94769.69;;;17.64;58.51
51083;BME280;37131;42.694;23.350;2022-11-20T03:14:27;94779.19;;;17.84;56.97
51083;BME280;37131;42.694;23.350;2022-11-20T03:16:53;94776.78;;;17.40;60.80
51083;BME280;37131;42.694;23.350;2022-11-20T03:19:18;94774.03;;;17.74;58.65
51083;BME280;37131;42.694;23.350;2022-11-20T03:21:43;94776.34;;;17.81;58.71
51083;BME280;37131;42.694;23.350;2022-11-20T03:24:09;94787.75;;;17.76;57.45
51083;BME280;37131;42.694;23.350;2022-11-20T03:26:34;94792.81;;;17.97;56.67
51083;BME280;37131;42.694;23.350;2022-11-20T03:29:01;94780.69;;;17.96;60.96
51083;BME280;37131;42.694;23.350;2022-11-20T03:31:33;94777.91;;;17.82;60.24
51083;BME280;37131;42.694;23.350;2022-11-20T03:33:59;94784.66;;;17.93;58.93
51083;BME280;37131;42.694;23.350;2022-11-20T03:36:25;94796.09;;;17.83;58.91
51083;BME280;37131;42.694;23.350;2022-11-20T03:38:53;94780.72;;;17.91;58.61
51083;BME280;37131;42.694;23.350;2022-11-20T03:41:21;94793.16;;;17.61;61.09
51083;BME280;37131;42.694;23.350;2022-11-20T03:43:57;94789.09;;;17.44;59.03
51083;BME280;37131;42.694;23.350;2022-11-20T03:46:24;94801.53;;;17.68;59.67
51083;BME280;37131;42.694;23.350;2022-11-20T03:48:49;94802.38;;;17.63;58.67
51083;BME280;37131;42.694;23.350;2022-11-20T03:51:17;94802.47;;;17.77;57.77
51083;BME280;37131;42.694;23.350;2022-11-20T03:53:45;94786.34;;;17.84;58.29
51083;BME280;37131;42.694;23.350;2022-11-20T03:56:13;94788.44;;;17.82;58.29
51083;BME280;37131;42.694;23.350;2022-11-20T03:58:40;94786.34;;;17.84;57.71
51083;BME280;37131;42.694;23.350;2022-11-20T04:03:36;94789.16;;;17.93;57.01
51083;BME280;37131;42.694;23.350;2022-11-20T04:08:50;94793.00;;;18.05;56.75
51083;BME280;37131;42.694;23.350;2022-11-20T04:11:24;94799.47;;;18.13;56.53
51083;BME280;37131;42.694;23.350;2022-11-20T04:13:55;94803.75;;;18.09;57.46
51083;BME280;37131;42.694;23.350;2022-11-20T04:16:22;94794.81;;;18.05;57.44
51083;BME280;37131;42.694;23.350;2022-11-20T04:18:52;94792.19;;;18.05;59.63
51083;BME280;37131;42.694;23.350;2022-11-20T04:21:18;94803.78;;;18.04;58.21
51083;BME280;37131;42.694;23.350;2022-11-20T04:23:43;94807.66;;;17.87;60.21
51083;BME280;37131;42.694;23.350;2022-11-20T04:26:10;94793.00;;;16.88;62.94
51083;BME280;37131;42.694;23.350;2022-11-20T04:28:36;94790.81;;;17.30;60.05
51083;BME280;37131;42.694;23.350;2022-11-20T04:31:14;94783.09;;;17.39;60.11
51083;BME280;37131;42.694;23.350;2022-11-20T04:33:40;94768.31;;;17.43;58.48
51083;BME280;37131;42.694;23.350;2022-11-20T04:36:10;94804.94;;;17.68;57.63
51083;BME280;37131;42.694;23.350;2022-11-20T04:38:36;94806.34;;;17.61;58.30
51083;BME280;37131;42.694;23.350;2022-11-20T04:41:05;94813.97;;;17.62;58.45
51083;BME280;37131;42.694;23.350;2022-11-20T04:43:31;94777.72;;;17.49;57.10
51083;BME280;37131;42.694;23.350;2022-11-20T04:45:58;94805.03;;;17.58;60.10
51083;BME280;37131;42.694;23.350;2022-11-20T04:48:25;94803.66;;;17.66;59.21
51083;BME280;37131;42.694;23.350;2022-11-20T04:50:51;94791.81;;;17.63;59.28
51083;BME280;37131;42.694;23.350;2022-11-20T04:53:17;94790.94;;;17.73;58.36
51083;BME280;37131;42.694;23.350;2022-11-20T04:55:43;94781.78;;;17.65;58.69
51083;BME280;37131;42.694;23.350;2022-11-20T04:58:08;94791.38;;;17.56;61.83
51083;BME280;37131;42.694;23.350;2022-11-20T05:00:34;94776.84;;;17.59;59.38
51083;BME280;37131;42.694;23.350;2022-11-20T05:02:59;94781.28;;;17.63;58.54
51083;BME280;37131;42.694;23.350;2022-11-20T05:05:25;94771.22;;;17.65;58.75
51083;BME280;37131;42.694;23.350;2022-11-20T05:07:50;94754.06;;;17.68;57.49
51083;BME280;37131;42.694;23.350;2022-11-20T05:10:16;94763.03;;;17.67;58.71
51083;BME280;37131;42.694;23.350;2022-11-20T05:12:41;94761.41;;;17.71;57.22
51083;BME280;37131;42.694;23.350;2022-11-20T05:15:07;94779.88;;;17.71;57.66
51083;BME280;37131;42.694;23.350;2022-11-20T05:17:33;94770.91;;;17.72;57.13
51083;BME280;37131;42.694;23.350;2022-11-20T05:19:58;94755.63;;;17.45;59.21
51083;BME280;37131;42.694;23.350;2022-11-20T05:22:23;94765.59;;;17.48;58.76
51083;BME280;37131;42.694;23.350;2022-11-20T05:24:49;94746.53;;;17.61;58.16
51083;BME280;37131;42.694;23.350;2022-11-20T05:27:15;94754.97;;;17.58;59.23
51083;BME280;37131;42.694;23.350;2022-11-20T05:29:40;94766.06;;;17.55;59.53
51083;BME280;37131;42.694;23.350;2022-11-20T05:32:06;94751.81;;;17.03;61.69
51083;BME280;37131;42.694;23.350;2022-11-20T05:34:34;94760.56;;;17.27;61.53
51083;BME280;37131;42.694;23.350;2022-11-20T05:36:59;94770.16;;;17.42;61.30
51083;BME280;37131;42.694;23.350;2022-11-20T05:39:24;94774.69;;;17.36;62.01
51083;BME280;37131;42.694;23.350;2022-11-20T05:41:50;94783.06;;;17.44;62.17
51083;BME280;37131;42.694;23.350;2022-11-20T05:44:35;94780.53;;;17.33;63.79
51083;BME280;37131;42.694;23.350;2022-11-20T05:47:00;94773.84;;;17.41;63.97
51083;BME280;37131;42.694;23.350;2022-11-20T05:49:26;94773.94;;;17.31;64.57
51083;BME280;37131;42.694;23.350;2022-11-20T05:51:51;94782.69;;;17.26;65.43
51083;BME280;37131;42.694;23.350;2022-11-20T05:54:17;94782.72;;;17.21;65.29
51083;BME280;37131;42.694;23.350;2022-11-20T05:56:42;94776.69;;;17.21;65.44
51083;BME280;37131;42.694;23.350;2022-11-20T05:59:07;94772.47;;;17.19;64.96
51083;BME280;37131;42.694;23.350;2022-11-20T06:01:33;94768.22;;;17.24;64.32
51083;BME280;37131;42.694;23.350;2022-11-20T06:03:58;94775.00;;;17.30;65.14
51083;BME280;37131;42.694;23.350;2022-11-20T06:06:24;94773.84;;;17.12;64.88
51083;BME280;37131;42.694;23.350;2022-11-20T06:08:51;94776.97;;;17.14;64.91
51083;BME280;37131;42.694;23.350;2022-11-20T06:11:16;94776.13;;;17.24;63.10
51083;BME280;37131;42.694;23.350;2022-11-20T06:13:43;94773.72;;;17.27;63.04
51083;BME280;37131;42.694;23.350;2022-11-20T06:16:09;94776.31;;;17.32;62.76
51083;BME280;37131;42.694;23.350;2022-11-20T06:18:35;94768.88;;;17.40;63.27
51083;BME280;37131;42.694;23.350;2022-11-20T06:21:23;94779.00;;;17.27;62.96
51083;BME280;37131;42.694;23.350;2022-11-20T06:23:50;94781.34;;;17.29;63.45
51083;BME280;37131;42.694;23.350;2022-11-20T06:26:21;94779.53;;;17.24;63.13
51083;BME280;37131;42.694;23.350;2022-11-20T06:28:47;94780.38;;;17.19;63.45
51083;BME280;37131;42.694;23.350;2022-11-20T06:31:14;94782.91;;;17.30;62.89
51083;BME280;37131;42.694;23.350;2022-11-20T06:33:41;94791.00;;;17.39;62.69
51083;BME280;37131;42.694;23.350;2022-11-20T06:36:07;94786.06;;;17.32;62.50
51083;BME280;37131;42.694;23.350;2022-11-20T06:38:34;94782.34;;;17.33;62.73
51083;BME280;37131;42.694;23.350;2022-11-20T06:40:59;94782.78;;;17.45;62.96
51083;BME280;37131;42.694;23.350;2022-11-20T06:43:25;94775.16;;;17.44;62.15
51083;BME280;37131;42.694;23.350;2022-11-20T06:45:55;94779.16;;;17.36;62.46
51083;BME280;37131;42.694;23.350;2022-11-20T06:48:21;94790.91;;;17.49;62.38
51083;BME280;37131;42.694;23.350;2022-11-20T06:50:47;94780.44;;;17.44;62.51
51083;BME280;37131;42.694;23.350;2022-11-20T06:53:12;94783.41;;;17.61;62.15
51083;BME280;37131;42.694;23.350;2022-11-20T06:55:45;94770.78;;;17.58;61.51
51083;BME280;37131;42.694;23.350;2022-11-20T06:58:11;94786.56;;;17.63;61.22
51083;BME280;37131;42.694;23.350;2022-11-20T07:00:36;94799.06;;;17.52;61.59
51083;BME280;37131;42.694;23.350;2022-11-20T07:03:05;94800.38;;;17.50;62.48
51083;BME280;37131;42.694;23.350;2022-11-20T07:05:31;94798.50;;;17.56;61.79
51083;BME280;37131;42.694;23.350;2022-11-20T07:07:57;94794.06;;;17.51;62.11
51083;BME280;37131;42.694;23.350;2022-11-20T07:10:23;94796.69;;;17.51;61.28
51083;BME280;37131;42.694;23.350;2022-11-20T07:12:50;94800.88;;;17.52;61.13
51083;BME280;37131;42.694;23.350;2022-11-20T07:15:16;94809.06;;;17.50;60.62
51083;BME280;37131;42.694;23.350;2022-11-20T07:17:42;94820.59;;;17.30;61.04
51083;BME280;37131;42.694;23.350;2022-11-20T07:20:07;94815.97;;;16.77;63.22
51083;BME280;37131;42.694;23.350;2022-11-20T07:22:33;94820.16;;;17.18;61.46
51083;BME280;37131;42.694;23.350;2022-11-20T07:24:58;94808.94;;;17.36;60.94
51083;BME280;37131;42.694;23.350;2022-11-20T07:27:23;94814.13;;;17.47;60.25
51083;BME280;37131;42.694;23.350;2022-11-20T07:29:49;94813.97;;;17.62;59.49
51083;BME280;37131;42.694;23.350;2022-11-20T07:32:14;94818.38;;;17.72;59.96
51083;BME280;37131;42.694;23.350;2022-11-20T07:34:39;94812.81;;;17.74;59.02
51083;BME280;37131;42.694;23.350;2022-11-20T07:37:05;94824.84;;;17.85;59.50
51083;BME280;37131;42.694;23.350;2022-11-20T07:39:30;94827.41;;;17.66;59.77
51083;BME280;37131;42.694;23.350;2022-11-20T07:41:56;94828.91;;;17.72;59.38
51083;BME280;37131;42.694;23.350;2022-11-20T07:44:21;94823.25;;;17.84;58.30
51083;BME280;37131;42.694;23.350;2022-11-20T07:46:46;94826.16;;;17.82;58.53
51083;BME280;37131;42.694;23.350;2022-11-20T07:49:12;94818.19;;;17.93;58.10
51083;BME280;37131;42.694;23.350;2022-11-20T07:51:37;94823.38;;;17.98;58.22
51083;BME280;37131;42.694;23.350;2022-11-20T07:54:02;94817.81;;;17.99;58.45
51083;BME280;37131;42.694;23.350;2022-11-20T07:56:28;94820.25;;;17.96;58.31
51083;BME280;37131;42.694;23.350;2022-11-20T07:58:53;94822.53;;;18.02;57.62
51083;BME280;37131;42.694;23.350;2022-11-20T08:01:19;94821.19;;;18.05;57.26
51083;BME280;37131;42.694;23.350;2022-11-20T08:03:44;94817.22;;;18.08;57.44
51083;BME280;37131;42.694;23.350;2022-11-20T08:06:09;94808.28;;;18.03;57.31
51083;BME280;37131;42.694;23.350;2022-11-20T08:08:35;94815.84;;;17.86;58.55
51083;BME280;37131;42.694;23.350;2022-11-20T08:11:00;94816.69;;;17.81;59.26
51083;BME280;37131;42.694;23.350;2022-11-20T08:13:45;94811.59;;;17.90;58.59
51083;BME280;37131;42.694;23.350;2022-11-20T08:16:28;94794.63;;;17.72;59.35
51083;BME280;37131;42.694;23.350;2022-11-20T08:18:54;94812.38;;;17.91;59.01
51083;BME280;37131;42.694;23.350;2022-11-20T08:21:20;94806.34;;;17.90;59.21
51083;BME280;37131;42.694;23.350;2022-11-20T08:23:45;94800.50;;;17.64;58.98
51083;BME280;37131;42.694;23.350;2022-11-20T08:26:10;94798.22;;;17.57;59.87
51083;BME280;37131;42.694;23.350;2022-11-20T08:28:36;94816.56;;;17.67;58.40
51083;BME280;37131;42.694;23.350;2022-11-20T08:31:02;94818.84;;;17.74;58.42
51083;BME280;37131;42.694;23.350;2022-11-20T08:33:29;94825.13;;;17.83;57.78
51083;BME280;37131;42.694;23.350;2022-11-20T08:35:59;94832.44;;;17.92;57.10
51083;BME280;37131;42.694;23.350;2022-11-20T08:38:25;94841.34;;;17.96;57.94
51083;BME280;37131;42.694;23.350;2022-11-20T08:40:50;94832.72;;;17.90;58.04
51083;BME280;37131;42.694;23.350;2022-11-20T08:43:34;94831.41;;;17.58;59.51
51083;BME280;37131;42.694;23.350;2022-11-20T08:45:59;94831.66;;;17.62;60.11
51083;BME280;37131;42.694;23.350;2022-11-20T08:48:24;94838.94;;;17.70;59.94
51083;BME280;37131;42.694;23.350;2022-11-20T08:50:50;94849.94;;;17.77;60.06
51083;BME280;37131;42.694;23.350;2022-11-20T08:53:15;94849.34;;;17.56;61.28
51083;BME280;37131;42.694;23.350;2022-11-20T08:55:40;94861.47;;;17.57;62.09
51083;BME280;37131;42.694;23.350;2022-11-20T08:58:06;94867.31;;;17.54;62.57
51083;BME280;37131;42.694;23.350;2022-11-20T09:00:33;94860.75;;;17.46;63.83
51083;BME280;37131;42.694;23.350;2022-11-20T09:02:59;94861.78;;;17.50;64.91
51083;BME280;37131;42.694;23.350;2022-11-20T09:05:26;94851.59;;;17.44;65.72
51083;BME280;37131;42.694;23.350;2022-11-20T09:07:51;94869.38;;;17.57;65.15
51083;BME280;37131;42.694;23.350;2022-11-20T09:10:17;94863.69;;;17.45;65.42
51083;BME280;37131;42.694;23.350;2022-11-20T09:12:42;94859.63;;;17.58;65.50
51083;BME280;37131;42.694;23.350;2022-11-20T09:15:08;94870.66;;;17.60;66.53
51083;BME280;37131;42.694;23.350;2022-11-20T09:17:33;94865.53;;;17.74;67.57
51083;BME280;37131;42.694;23.350;2022-11-20T09:19:58;94867.63;;;17.77;68.55
51083;BME280;37131;42.694;23.350;2022-11-20T09:22:24;94856.34;;;17.71;71.84
51083;BME280;37131;42.694;23.350;2022-11-20T09:24:49;94864.88;;;17.28;72.54
51083;BME280;37131;42.694;23.350;2022-11-20T09:27:14;94870.31;;;17.03;72.62
51083;BME280;37131;42.694;23.350;2022-11-20T09:29:44;94885.25;;;17.17;75.45
51083;BME280;37131;42.694;23.350;2022-11-20T09:32:09;94874.28;;;17.05;71.56
51083;BME280;37131;42.694;23.350;2022-11-20T09:34:35;94873.56;;;16.89;73.37
51083;BME280;37131;42.694;23.350;2022-11-20T09:37:00;94865.91;;;16.38;74.26
51083;BME280;37131;42.694;23.350;2022-11-20T09:39:26;94836.47;;;16.30;74.19
51083;BME280;37131;42.694;23.350;2022-11-20T09:53:24;94824.91;;;16.31;86.59
51083;BME280;37131;42.694;23.350;2022-11-20T09:55:51;94822.25;;;16.31;86.81
51083;BME280;37131;42.694;23.350;2022-11-20T09:58:42;94825.91;;;14.93;89.42
51083;BME280;37131;42.694;23.350;2022-11-20T10:01:15;94823.53;;;15.43;90.66
51083;BME280;37131;42.694;23.350;2022-11-20T10:03:54;94821.91;;;15.63;88.04
51083;BME280;37131;42.694;23.350;2022-11-20T10:06:29;94803.25;;;15.79;86.64
51083;BME280;37131;42.694;23.350;2022-11-20T10:09:01;94808.69;;;16.04;85.63
51083;BME280;37131;42.694;23.350;2022-11-20T10:16:55;94811.94;;;15.70;87.90
51083;BME280;37131;42.694;23.350;2022-11-20T10:30:16;94787.56;;;15.38;87.99
51083;BME280;37131;42.694;23.350;2022-11-20T10:32:43;94794.66;;;14.91;89.13
51083;BME280;37131;42.694;23.350;2022-11-20T10:37:43;94795.16;;;15.45;86.94
51083;BME280;37131;42.694;23.350;2022-11-20T10:42:49;94798.50;;;15.76;84.97
51083;BME280;37131;42.694;23.350;2022-11-20T10:46:02;94803.78;;;15.82;85.88
51083;BME280;37131;42.694;23.350;2022-11-20T10:48:27;94805.84;;;15.90;85.66
51083;BME280;37131;42.694;23.350;2022-11-20T10:56:34;94782.81;;;16.26;87.19
51083;BME280;37131;42.694;23.350;2022-11-20T11:01:42;94815.38;;;16.41;85.18
51083;BME280;37131;42.694;23.350;2022-11-20T11:06:58;94830.50;;;16.04;89.92
51083;BME280;37131;42.694;23.350;2022-11-20T11:09:36;94850.81;;;15.68;90.23
51083;BME280;37131;42.694;23.350;2022-11-20T11:12:06;94863.72;;;15.49;88.83
51083;BME280;37131;42.694;23.350;2022-11-20T11:14:48;94870.81;;;15.02;86.34
51083;BME280;37131;42.694;23.350;2022-11-20T11:20:22;94889.53;;;14.47;83.18
51083;BME280;37131;42.694;23.350;2022-11-20T11:22:49;94868.22;;;14.28;89.67
51083;BME280;37131;42.694;23.350;2022-11-20T11:25:28;94872.22;;;14.41;86.12
51083;BME280;37131;42.694;23.350;2022-11-20T11:27:57;94876.56;;;14.15;82.00
51083;BME280;37131;42.694;23.350;2022-11-20T11:30:24;94848.00;;;14.24;85.79
51083;BME280;37131;42.694;23.350;2022-11-20T11:32:50;94845.00;;;13.99;81.16
51083;BME280;37131;42.694;23.350;2022-11-20T11:35:28;94876.69;;;13.93;83.30
51083;BME280;37131;42.694;23.350;2022-11-20T11:38:02;94857.47;;;13.72;87.42
51083;BME280;37131;42.694;23.350;2022-11-20T11:40:33;94853.19;;;13.60;89.49
51083;BME280;37131;42.694;23.350;2022-11-20T11:43:03;94857.44;;;13.34;93.78
51083;BME280;37131;42.694;23.350;2022-11-20T11:45:30;94842.28;;;13.36;94.91
51083;BME280;37131;42.694;23.350;2022-11-20T11:48:00;94849.50;;;13.24;95.58
51083;BME280;37131;42.694;23.350;2022-11-20T11:50:29;94853.53;;;13.37;92.82
51083;BME280;37131;42.694;23.350;2022-11-20T11:53:18;94844.00;;;13.25;92.48
51083;BME280;37131;42.694;23.350;2022-11-20T11:55:54;94852.44;;;13.32;93.47
51083;BME280;37131;42.694;23.350;2022-11-20T11:58:44;94859.13;;;13.18;95.97
51083;BME280;37131;42.694;23.350;2022-11-20T12:01:33;94842.13;;;13.21;98.07
51083;BME280;37131;42.694;23.350;2022-11-20T12:06:32;94846.88;;;13.56;89.84
51083;BME280;37131;42.694;23.350;2022-11-20T12:09:03;94847.19;;;13.65;85.06
51083;BME280;37131;42.694;23.350;2022-11-20T12:11:31;94856.25;;;13.52;82.68
51083;BME280;37131;42.694;23.350;2022-11-20T12:14:02;94853.25;;;13.71;84.60
51083;BME280;37131;42.694;23.350;2022-11-20T12:16:36;94836.50;;;13.77;84.80
51083;BME280;37131;42.694;23.350;2022-11-20T12:19:07;94834.09;;;13.65;89.64
51083;BME280;37131;42.694;23.350;2022-11-20T12:27:14;94839.75;;;13.46;87.92
51083;BME280;37131;42.694;23.350;2022-11-20T12:30:10;94842.97;;;13.64;89.90
51083;BME280;37131;42.694;23.350;2022-11-20T12:35:44;94870.09;;;13.42;91.65
51083;BME280;37131;42.694;23.350;2022-11-20T12:38:36;94843.34;;;13.40;90.00
51083;BME280;37131;42.694;23.350;2022-11-20T12:44:51;94786.25;;;13.37;94.74
51083;BME280;37131;42.694;23.350;2022-11-20T12:53:30;94786.06;;;12.24;100.00
51083;BME280;37131;42.694;23.350;2022-11-20T12:59:14;94786.34;;;12.82;100.00
51083;BME280;37131;42.694;23.350;2022-11-20T13:02:35;94810.72;;;12.88;100.00
51083;BME280;37131;42.694;23.350;2022-11-20T13:07:05;94804.94;;;12.54;100.00
51083;BME280;37131;42.694;23.350;2022-11-20T13:09:32;94797.13;;;12.32;100.00
51083;BME280;37131;42.694;23.350;2022-11-20T13:12:12;94776.28;;;12.15;100.00
51083;BME280;37131;42.694;23.350;2022-11-20T13:17:30;94737.97;;;11.98;100.00
51083;BME280;37131;42.694;23.350;2022-11-20T13:19:58;94748.25;;;12.32;100.00
51083;BME280;37131;42.694;23.350;2022-11-20T13:24:51;94788.56;;;12.36;100.00
51083;BME280;37131;42.694;23.350;2022-11-20T13:27:20;94800.31;;;12.61;100.00
51083;BME280;37131;42.694;23.350;2022-11-20T13:30:03;94765.25;;;12.62;100.00
51083;BME280;37131;42.694;23.350;2022-11-20T13:32:48;94782.78;;;12.61;100.00
51083;BME280;37131;42.694;23.350;2022-11-20T13:35:33;94813.09;;;12.90;100.00
51083;BME280;37131;42.694;23.350;2022-11-20T13:38:19;94808.38;;;12.87;100.00
51083;BME280;37131;42.694;23.350;2022-11-20T13:40:58;94781.06;;;13.10;100.00
51083;BME280;37131;42.694;23.350;2022-11-20T13:46:05;94816.03;;;13.31;97.76
51083;BME280;37131;42.694;23.350;2022-11-20T13:48:39;94784.69;;;13.04;98.95
51083;BME280;37131;42.694;23.350;2022-11-20T13:51:40;94792.28;;;12.45;100.00
51083;BME280;37131;42.694;23.350;2022-11-20T14:00:24;94804.22;;;12.63;100.00
51083;BME280;37131;42.694;23.350;2022-11-20T14:03:13;94826.66;;;12.81;100.00
51083;BME280;37131;42.694;23.350;2022-11-20T14:05:51;94817.41;;;13.06;100.00
51083;BME280;37131;42.694;23.350;2022-11-20T14:08:25;94811.75;;;13.20;100.00
51083;BME280;37131;42.694;23.350;2022-11-20T14:11:03;94813.31;;;12.83;100.00
51083;BME280;37131;42.694;23.350;2022-11-20T14:13:29;94811.97;;;13.13;100.00
51083;BME280;37131;42.694;23.350;2022-11-20T14:15:57;94809.19;;;13.25;100.00
51083;BME280;37131;42.694;23.350;2022-11-20T14:18:25;94810.91;;;13.41;100.00
51083;BME280;37131;42.694;23.350;2022-11-20T14:20:51;94790.00;;;13.14;100.00
51083;BME280;37131;42.694;23.350;2022-11-20T14:23:27;94811.13;;;13.35;100.00
51083;BME280;37131;42.694;23.350;2022-11-20T14:25:53;94803.72;;;13.31;100.00
51083;BME280;37131;42.694;23.350;2022-11-20T14:28:28;94790.19;;;13.40;100.00
51083;BME280;37131;42.694;23.350;2022-11-20T14:30:54;94793.09;;;13.43;100.00
51083;BME280;37131;42.694;23.350;2022-11-20T14:33:21;94796.97;;;13.36;100.00
51083;BME280;37131;42.694;23.350;2022-11-20T14:35:55;94815.78;;;13.32;100.00